createdAt,value
2018-08-13T00:01:27.521Z,3.93
2018-08-13T00:03:55.749Z,6.53
2018-08-13T00:06:23.993Z,3.13
2018-08-13T00:08:52.266Z,3.10
2018-08-13T00:11:20.517Z,4.30
2018-08-13T00:13:48.776Z,7.10
2018-08-13T00:16:16.994Z,3.90
2018-08-13T00:18:45.249Z,3.77
2018-08-13T00:21:13.505Z,4.20
2018-08-13T00:23:41.721Z,4.13
2018-08-13T00:26:09.963Z,4.07
2018-08-13T00:28:38.193Z,5.63
2018-08-13T00:31:06.550Z,6.07
2018-08-13T00:33:34.793Z,6.30
2018-08-13T00:36:03.041Z,6.47
2018-08-13T00:38:31.306Z,5.00
2018-08-13T00:41:00.989Z,4.30
2018-08-13T00:43:29.234Z,6.03
2018-08-13T00:45:57.463Z,6.40
2018-08-13T00:48:25.725Z,3.47
2018-08-13T00:50:53.944Z,4.90
2018-08-13T00:53:22.221Z,2.77
2018-08-13T00:55:50.465Z,4.23
2018-08-13T00:58:18.745Z,9.33
2018-08-13T01:00:46.981Z,5.40
2018-08-13T01:03:15.241Z,6.20
2018-08-13T01:05:43.481Z,3.57
2018-08-13T01:08:11.710Z,4.93
2018-08-13T01:10:39.926Z,4.43
2018-08-13T01:13:08.189Z,4.33
2018-08-13T01:15:36.443Z,4.83
2018-08-13T01:18:05.581Z,3.87
2018-08-13T01:20:33.821Z,3.13
2018-08-13T01:23:02.045Z,3.87
2018-08-13T01:25:30.285Z,3.97
2018-08-13T01:27:58.493Z,4.57
2018-08-13T01:30:26.729Z,4.13
2018-08-13T01:32:54.973Z,5.00
2018-08-13T01:35:23.189Z,8.23
2018-08-13T01:37:51.421Z,4.63
2018-08-13T01:40:19.636Z,6.63
2018-08-13T01:42:47.900Z,5.17
2018-08-13T01:45:16.149Z,10.50
2018-08-13T01:47:44.393Z,7.07
2018-08-13T01:50:13.268Z,5.47
2018-08-13T01:52:41.549Z,5.87
2018-08-13T01:55:10.675Z,6.33
2018-08-13T01:57:38.945Z,4.73
2018-08-13T02:00:10.429Z,6.37
2018-08-13T02:02:38.681Z,7.33
2018-08-13T02:05:07.025Z,6.87
2018-08-13T02:07:35.401Z,6.80
2018-08-13T02:10:03.643Z,5.97
2018-08-13T02:12:31.925Z,5.33
2018-08-13T02:15:00.155Z,5.40
2018-08-13T02:17:28.417Z,5.67
2018-08-13T02:19:56.662Z,5.70
2018-08-13T02:22:24.937Z,4.80
2018-08-13T02:24:53.179Z,3.90
2018-08-13T02:27:21.457Z,4.20
2018-08-13T02:29:49.689Z,4.53
2018-08-13T02:32:17.932Z,3.63
2018-08-13T02:34:46.143Z,6.00
2018-08-13T02:37:14.383Z,4.33
2018-08-13T02:39:42.639Z,4.33
2018-08-13T02:42:10.896Z,5.97
2018-08-13T02:44:39.149Z,5.37
2018-08-13T02:47:07.401Z,6.87
2018-08-13T02:49:35.629Z,3.97
2018-08-13T02:52:04.271Z,3.03
2018-08-13T02:54:32.508Z,5.70
2018-08-13T02:57:00.759Z,3.77
2018-08-13T02:59:28.993Z,4.90
2018-08-13T03:01:57.230Z,3.77
2018-08-13T03:04:25.485Z,4.77
2018-08-13T03:06:57.921Z,3.87
2018-08-13T03:09:26.142Z,6.23
2018-08-13T03:11:54.361Z,7.30
2018-08-13T03:14:22.605Z,4.83
2018-08-13T03:16:50.861Z,3.77
2018-08-13T03:19:19.082Z,9.43
2018-08-13T03:21:47.355Z,5.23
2018-08-13T03:24:15.590Z,5.53
2018-08-13T03:26:43.875Z,4.67
2018-08-13T03:29:12.078Z,5.07
2018-08-13T03:31:40.333Z,4.60
2018-08-13T03:34:08.545Z,4.80
2018-08-13T03:36:37.253Z,6.33
2018-08-13T03:39:08.721Z,4.60
2018-08-13T03:41:36.973Z,4.63
2018-08-13T03:44:05.237Z,4.07
2018-08-13T03:46:33.497Z,4.07
2018-08-13T03:49:01.721Z,5.50
2018-08-13T03:51:30.010Z,4.27
2018-08-13T03:53:58.241Z,5.27
2018-08-13T03:56:26.469Z,5.60
2018-08-13T03:58:54.733Z,8.93
2018-08-13T04:01:22.985Z,5.77
2018-08-13T04:03:51.253Z,5.67
2018-08-13T04:06:19.473Z,4.03
2018-08-13T04:08:47.713Z,4.70
2018-08-13T04:11:15.977Z,4.17
2018-08-13T04:13:44.217Z,6.30
2018-08-13T04:16:12.481Z,8.10
2018-08-13T04:18:40.730Z,4.87
2018-08-13T04:21:08.980Z,7.47
2018-08-13T04:23:37.221Z,5.03
2018-08-13T04:26:07.772Z,3.20
2018-08-13T04:28:35.997Z,3.70
2018-08-13T04:31:04.225Z,4.97
2018-08-13T04:33:32.457Z,5.40
2018-08-13T04:36:00.686Z,5.43
2018-08-13T04:38:28.912Z,3.43
2018-08-13T04:40:57.153Z,4.87
2018-08-13T04:43:25.362Z,4.67
2018-08-13T04:45:53.581Z,5.87
2018-08-13T04:48:21.813Z,4.23
2018-08-13T04:50:50.053Z,7.17
2018-08-13T04:53:18.265Z,6.97
2018-08-13T04:55:46.666Z,7.00
2018-08-13T04:58:14.915Z,8.77
2018-08-13T05:00:43.133Z,5.90
2018-08-13T05:03:11.385Z,7.80
2018-08-13T05:05:39.601Z,8.60
2018-08-13T05:08:07.977Z,7.10
2018-08-13T05:10:36.190Z,8.70
2018-08-13T05:13:04.476Z,4.33
2018-08-13T05:15:32.710Z,3.90
2018-08-13T05:18:00.953Z,6.27
2018-08-13T05:20:29.177Z,5.53
2018-08-13T05:22:57.443Z,5.33
2018-08-13T05:25:25.674Z,7.40
2018-08-13T05:27:53.917Z,4.30
2018-08-13T05:30:22.296Z,7.27
2018-08-13T05:32:50.505Z,7.67
2018-08-13T05:35:18.741Z,6.93
2018-08-13T05:37:46.997Z,4.30
2018-08-13T05:40:15.340Z,5.73
2018-08-13T05:42:43.564Z,7.30
2018-08-13T05:45:11.784Z,7.27
2018-08-13T05:47:40.275Z,6.33
2018-08-13T05:50:09.896Z,7.57
2018-08-13T05:52:38.170Z,9.50
2018-08-13T05:55:06.600Z,8.70
2018-08-13T05:57:34.837Z,11.97
2018-08-13T06:00:03.185Z,10.47
2018-08-13T06:02:31.434Z,8.97
2018-08-13T06:04:59.665Z,7.33
2018-08-13T06:07:27.890Z,8.23
2018-08-13T06:09:56.101Z,5.17
2018-08-13T06:12:24.350Z,7.47
2018-08-13T06:14:52.577Z,6.07
2018-08-13T06:17:20.859Z,7.60
2018-08-13T06:19:49.093Z,6.60
2018-08-13T06:22:17.342Z,7.80
2018-08-13T06:24:45.609Z,8.60
2018-08-13T06:27:13.910Z,7.97
2018-08-13T06:29:42.152Z,8.00
2018-08-13T06:32:10.501Z,8.70
2018-08-13T06:34:39.676Z,6.33
2018-08-13T06:37:09.913Z,7.77
2018-08-13T06:39:38.184Z,6.90
2018-08-13T06:42:06.564Z,8.37
2018-08-13T06:44:35.073Z,6.33
2018-08-13T06:47:03.450Z,6.63
2018-08-13T06:49:31.798Z,6.87
2018-08-13T06:52:00.090Z,7.40
2018-08-13T06:54:28.343Z,7.23
2018-08-13T06:56:56.609Z,7.23
2018-08-13T06:59:24.965Z,6.07
2018-08-13T07:01:53.181Z,7.70
2018-08-13T07:04:21.418Z,9.03
2018-08-13T07:06:49.668Z,10.17
2018-08-13T07:09:17.906Z,7.53
2018-08-13T07:11:46.265Z,8.63
2018-08-13T07:14:14.541Z,10.00
2018-08-13T07:16:42.789Z,7.70
2018-08-13T07:19:11.045Z,7.87
2018-08-13T07:21:39.293Z,10.60
2018-08-13T07:24:07.637Z,9.83
2018-08-13T07:26:35.927Z,7.33
2018-08-13T07:29:04.197Z,6.80
2018-08-13T07:31:32.450Z,9.67
2018-08-13T07:34:00.707Z,9.30
2018-08-13T07:36:28.961Z,9.47
2018-08-13T07:38:57.211Z,9.30
2018-08-13T07:41:25.517Z,9.03
2018-08-13T07:43:53.773Z,12.07
2018-08-13T07:46:22.020Z,10.40
2018-08-13T07:48:50.253Z,10.27
2018-08-13T07:51:18.517Z,6.83
2018-08-13T07:53:49.646Z,12.43
2018-08-13T07:56:17.889Z,8.40
2018-08-13T07:58:46.209Z,9.37
2018-08-13T08:01:14.474Z,5.70
2018-08-13T08:03:42.832Z,6.90
2018-08-13T08:06:11.085Z,7.43
2018-08-13T08:08:39.357Z,6.13
2018-08-13T08:11:07.889Z,4.37
2018-08-13T08:13:36.208Z,5.40
2018-08-13T08:16:04.506Z,6.77
2018-08-13T08:18:32.774Z,8.17
2018-08-13T08:21:01.074Z,6.60
2018-08-13T08:23:29.372Z,5.47
2018-08-13T08:25:57.644Z,8.93
2018-08-13T08:28:25.945Z,8.13
2018-08-13T08:30:54.197Z,5.07
2018-08-13T08:33:22.473Z,8.03
2018-08-13T08:35:50.733Z,5.13
2018-08-13T08:38:19.005Z,6.40
2018-08-13T08:40:47.284Z,3.77
2018-08-13T08:43:15.587Z,4.27
2018-08-13T08:45:43.858Z,5.50
2018-08-13T08:48:12.146Z,7.33
2018-08-13T08:50:40.397Z,7.13
2018-08-13T08:53:08.642Z,5.90
2018-08-13T08:55:36.966Z,6.23
2018-08-13T08:58:05.253Z,8.50
2018-08-13T09:00:33.593Z,5.33
2018-08-13T09:03:01.837Z,5.83
2018-08-13T09:05:30.086Z,5.50
2018-08-13T09:07:58.365Z,7.10
2018-08-13T09:10:26.641Z,7.50
2018-08-13T09:12:54.902Z,6.63
2018-08-13T09:15:23.215Z,6.10
2018-08-13T09:18:02.785Z,6.47
2018-08-13T09:21:44.110Z,6.50
2018-08-13T09:24:23.606Z,4.17
2018-08-13T09:28:06.793Z,7.80
2018-08-13T09:30:46.318Z,4.90
2018-08-13T09:33:25.802Z,7.43
2018-08-13T09:35:54.058Z,6.67
2018-08-13T09:38:22.349Z,5.80
2018-08-13T09:40:50.629Z,6.27
2018-08-13T09:43:18.908Z,6.70
2018-08-13T09:45:47.174Z,4.07
2018-08-13T09:48:15.459Z,5.23
2018-08-13T09:50:43.705Z,6.73
2018-08-13T09:53:11.949Z,6.03
2018-08-13T09:55:40.213Z,8.73
2018-08-13T09:58:08.493Z,5.33
2018-08-13T10:00:42.165Z,7.57
2018-08-13T10:03:10.447Z,9.97
2018-08-13T10:05:38.766Z,7.30
2018-08-13T10:08:07.064Z,5.97
2018-08-13T10:10:35.323Z,8.47
2018-08-13T10:13:03.649Z,7.77
2018-08-13T10:15:31.905Z,8.93
2018-08-13T10:18:00.251Z,10.13
2018-08-13T10:20:28.545Z,9.83
2018-08-13T10:22:56.789Z,7.60
2018-08-13T10:25:25.026Z,6.60
2018-08-13T10:27:53.265Z,8.97
2018-08-13T10:30:21.493Z,7.20
2018-08-13T10:32:49.741Z,12.27
2018-08-13T10:35:18.049Z,8.13
2018-08-13T10:37:46.298Z,9.20
2018-08-13T10:40:16.866Z,11.07
2018-08-13T10:42:45.537Z,8.87
2018-08-13T10:45:14.099Z,9.80
2018-08-13T10:47:42.354Z,11.20
2018-08-13T10:50:12.266Z,9.93
2018-08-13T10:52:40.869Z,10.70
2018-08-13T10:55:10.182Z,11.27
2018-08-13T10:57:38.454Z,11.40
2018-08-13T11:00:08.721Z,8.93
2018-08-13T11:02:37.038Z,12.03
2018-08-13T11:05:06.837Z,7.47
2018-08-13T11:07:35.109Z,12.60
2018-08-13T11:10:03.432Z,6.73
2018-08-13T11:12:31.665Z,10.70
2018-08-13T11:14:59.914Z,9.10
2018-08-13T11:17:28.177Z,8.33
2018-08-13T11:19:57.425Z,9.87
2018-08-13T11:22:25.670Z,9.03
2018-08-13T11:24:53.953Z,8.67
2018-08-13T11:27:22.229Z,9.70
2018-08-13T11:29:50.490Z,7.67
2018-08-13T11:32:19.234Z,9.43
2018-08-13T11:34:47.574Z,12.73
2018-08-13T11:37:15.745Z,10.93
2018-08-13T11:39:43.973Z,9.07
2018-08-13T11:42:12.258Z,6.67
2018-08-13T11:44:40.494Z,9.07
2018-08-13T11:47:08.745Z,6.87
2018-08-13T11:49:37.013Z,9.27
2018-08-13T11:52:05.701Z,5.37
2018-08-13T11:54:33.981Z,6.87
2018-08-13T11:57:02.357Z,10.63
2018-08-13T11:59:30.614Z,7.67
2018-08-13T12:01:58.910Z,5.90
2018-08-13T12:04:27.094Z,4.00
2018-08-13T12:06:55.330Z,4.00
2018-08-13T12:09:23.576Z,5.90
2018-08-13T12:11:51.807Z,3.67
2018-08-13T12:14:20.078Z,4.57
2018-08-13T12:16:48.317Z,4.73
2018-08-13T12:19:16.617Z,3.40
2018-08-13T12:21:44.851Z,3.53
2018-08-13T12:24:13.117Z,4.53
2018-08-13T12:26:41.346Z,5.13
2018-08-13T12:29:09.585Z,3.43
2018-08-13T12:31:37.813Z,5.00
2018-08-13T12:34:06.171Z,4.40
2018-08-13T12:36:34.463Z,3.60
2018-08-13T12:39:02.766Z,4.10
2018-08-13T12:41:31.238Z,3.00
2018-08-13T12:43:59.573Z,4.17
2018-08-13T12:46:27.857Z,6.17
2018-08-13T12:48:56.098Z,6.03
2018-08-13T12:51:24.321Z,3.17
2018-08-13T12:53:52.569Z,4.33
2018-08-13T12:56:20.853Z,4.03
2018-08-13T12:58:49.166Z,3.93
2018-08-13T13:01:18.437Z,3.60
2018-08-13T13:03:46.718Z,3.37
2018-08-13T13:06:14.939Z,4.23
2018-08-13T13:08:43.189Z,4.17
2018-08-13T13:11:13.518Z,5.07
2018-08-13T13:13:41.811Z,4.80
2018-08-13T13:16:10.161Z,3.77
2018-08-13T13:18:38.779Z,3.57
2018-08-13T13:21:07.025Z,4.63
2018-08-13T13:23:38.610Z,4.23
2018-08-13T13:26:06.894Z,5.07
2018-08-13T13:28:35.124Z,2.43
2018-08-13T13:31:03.409Z,3.00
2018-08-13T13:33:31.806Z,4.20
2018-08-13T13:36:00.070Z,2.40
2018-08-13T13:38:28.322Z,3.53
2018-08-13T13:40:56.553Z,2.77
2018-08-13T13:43:24.833Z,5.23
2018-08-13T13:45:53.085Z,3.13
2018-08-13T13:48:21.325Z,3.00
2018-08-13T13:50:49.566Z,2.10
2018-08-13T13:53:17.942Z,2.77
2018-08-13T13:55:46.186Z,2.30
2018-08-13T13:58:14.459Z,3.70
2018-08-13T14:00:42.714Z,4.57
2018-08-13T14:03:10.958Z,3.80
2018-08-13T14:05:39.194Z,6.67
2018-08-13T14:08:07.466Z,4.40
2018-08-13T14:10:36.014Z,3.00
2018-08-13T14:13:04.272Z,2.90
2018-08-13T14:15:32.545Z,4.33
2018-08-13T14:18:00.797Z,2.40
2018-08-13T14:20:29.087Z,4.10
2018-08-13T14:22:57.377Z,4.17
2018-08-13T14:25:25.626Z,2.63
2018-08-13T14:27:53.870Z,4.33
2018-08-13T14:30:29.057Z,5.07
2018-08-13T14:32:57.326Z,5.17
2018-08-13T14:35:25.965Z,3.00
2018-08-13T14:37:54.200Z,4.90
2018-08-13T14:40:22.484Z,4.40
2018-08-13T14:42:50.728Z,4.90
2018-08-13T14:45:19.561Z,2.87
2018-08-13T14:47:49.552Z,5.60
2018-08-13T14:50:17.926Z,3.13
2018-08-13T14:52:47.261Z,3.30
2018-08-13T14:55:17.625Z,2.80
2018-08-13T14:57:45.907Z,4.30
2018-08-13T15:00:24.748Z,4.77
2018-08-13T15:02:53.909Z,2.37
2018-08-13T15:05:22.197Z,3.07
2018-08-13T15:07:50.473Z,2.67
2018-08-13T15:10:20.430Z,4.20
2018-08-13T15:12:48.766Z,2.23
2018-08-13T15:15:17.008Z,2.53
2018-08-13T15:17:45.290Z,4.10
2018-08-13T15:20:15.567Z,2.70
2018-08-13T15:22:43.827Z,2.60
2018-08-13T15:25:12.114Z,2.20
2018-08-13T15:27:40.464Z,2.70
2018-08-13T15:30:11.958Z,3.67
2018-08-13T15:32:40.358Z,1.90
2018-08-13T15:35:08.947Z,5.50
2018-08-13T15:37:37.309Z,2.13
2018-08-13T15:40:05.869Z,2.53
2018-08-13T15:42:34.647Z,2.87
2018-08-13T15:45:02.992Z,1.60
2018-08-13T15:47:31.234Z,2.00
2018-08-13T15:49:59.475Z,2.57
2018-08-13T15:52:27.762Z,1.30
2018-08-13T15:54:56.006Z,1.80
2018-08-13T15:57:24.222Z,3.37
2018-08-13T15:59:52.473Z,4.50
2018-08-13T16:02:20.744Z,1.03
2018-08-13T16:04:49.001Z,2.27
2018-08-13T16:07:17.217Z,1.67
2018-08-13T16:09:45.455Z,1.97
2018-08-13T16:12:13.727Z,1.57
2018-08-13T16:14:41.954Z,2.60
2018-08-13T16:17:10.185Z,2.47
2018-08-13T16:19:38.420Z,1.83
2018-08-13T16:22:06.714Z,2.30
2018-08-13T16:24:35.565Z,2.00
2018-08-13T16:27:03.837Z,1.30
2018-08-13T16:29:32.103Z,2.63
2018-08-13T16:32:00.557Z,1.20
2018-08-13T16:34:28.785Z,2.33
2018-08-13T16:36:57.018Z,1.37
2018-08-13T16:39:25.275Z,1.30
2018-08-13T16:41:53.542Z,2.30
2018-08-13T16:44:21.781Z,1.90
2018-08-13T16:46:50.054Z,2.30
2018-08-13T16:49:18.301Z,0.90
2018-08-13T16:51:46.569Z,2.17
2018-08-13T16:54:14.941Z,1.27
2018-08-13T16:56:43.226Z,2.30
2018-08-13T16:59:11.457Z,2.53
2018-08-13T17:01:39.714Z,2.57
2018-08-13T17:04:08.050Z,3.67
2018-08-13T17:06:36.356Z,1.90
2018-08-13T17:09:06.566Z,2.33
2018-08-13T17:11:34.829Z,2.90
2018-08-13T17:14:04.572Z,2.00
2018-08-13T17:16:32.803Z,0.80
2018-08-13T17:19:01.086Z,1.77
2018-08-13T17:21:29.369Z,1.63
2018-08-13T17:23:57.621Z,2.10
2018-08-13T17:26:25.938Z,3.40
2018-08-13T17:28:54.201Z,2.17
2018-08-13T17:31:22.465Z,0.73
2018-08-13T17:33:50.731Z,2.50
2018-08-13T17:36:18.985Z,2.10
2018-08-13T17:38:47.265Z,1.67
2018-08-13T17:41:15.521Z,2.60
2018-08-13T17:43:43.826Z,0.80
2018-08-13T17:46:12.057Z,2.10
2018-08-13T17:48:40.278Z,1.37
2018-08-13T17:51:08.565Z,1.00
2018-08-13T17:53:36.806Z,1.00
2018-08-13T17:56:05.077Z,1.83
2018-08-13T17:58:33.306Z,1.20
2018-08-13T18:01:01.526Z,1.70
2018-08-13T18:03:29.761Z,2.37
2018-08-13T18:05:58.047Z,1.93
2018-08-13T18:08:26.309Z,2.37
2018-08-13T18:10:54.546Z,1.00
2018-08-13T18:13:22.817Z,1.10
2018-08-13T18:15:51.049Z,1.77
2018-08-13T18:18:19.294Z,1.50
2018-08-13T18:20:49.309Z,1.10
2018-08-13T18:23:17.548Z,1.37
2018-08-13T18:25:46.214Z,3.37
2018-08-13T18:28:14.465Z,3.30
2018-08-13T18:30:42.765Z,0.97
2018-08-13T18:33:11.158Z,3.13
2018-08-13T18:35:39.407Z,3.10
2018-08-13T18:38:07.798Z,1.13
2018-08-13T18:40:36.062Z,2.00
2018-08-13T18:43:04.360Z,2.90
2018-08-13T18:45:32.617Z,2.80
2018-08-13T18:48:01.083Z,1.37
2018-08-13T18:50:29.347Z,3.33
2018-08-13T18:52:57.575Z,1.77
2018-08-13T18:55:26.205Z,2.43
2018-08-13T18:57:54.905Z,1.13
2018-08-13T19:00:28.765Z,1.50
2018-08-13T19:02:57.934Z,1.33
2018-08-13T19:05:26.194Z,3.23
2018-08-13T19:07:54.406Z,2.40
2018-08-13T19:10:22.837Z,2.00
2018-08-13T19:12:51.097Z,1.27
2018-08-13T19:15:21.532Z,1.03
2018-08-13T19:17:50.078Z,1.33
2018-08-13T19:20:18.369Z,1.90
2018-08-13T19:22:46.699Z,1.20
2018-08-13T19:25:16.635Z,1.07
2018-08-13T19:27:45.326Z,1.13
2018-08-13T19:30:15.370Z,1.80
2018-08-13T19:32:44.369Z,0.97
2018-08-13T19:35:12.626Z,1.47
2018-08-13T19:37:40.926Z,1.60
2018-08-13T19:40:12.625Z,1.67
2018-08-13T19:42:40.875Z,1.57
2018-08-13T19:45:10.388Z,1.73
2018-08-13T19:47:38.633Z,1.97
2018-08-13T19:50:08.665Z,0.87
2018-08-13T19:52:37.083Z,1.70
2018-08-13T19:55:05.557Z,2.23
2018-08-13T19:57:33.831Z,1.03
2018-08-13T20:00:02.234Z,3.10
2018-08-13T20:02:30.472Z,1.37
2018-08-13T20:04:59.161Z,1.83
2018-08-13T20:07:27.433Z,1.23
2018-08-13T20:09:55.678Z,1.23
2018-08-13T20:12:24.017Z,1.50
2018-08-13T20:14:52.241Z,1.57
2018-08-13T20:17:21.679Z,1.57
2018-08-13T20:19:49.974Z,4.53
2018-08-13T20:22:18.198Z,1.93
2018-08-13T20:24:46.542Z,1.63
2018-08-13T20:27:14.749Z,3.93
2018-08-13T20:29:43.093Z,1.60
2018-08-13T20:32:11.433Z,3.90
2018-08-13T20:34:39.701Z,1.97
2018-08-13T20:37:08.044Z,4.67
2018-08-13T20:39:36.206Z,1.60
2018-08-13T20:42:04.521Z,2.23
2018-08-13T20:44:32.776Z,2.37
2018-08-13T20:47:01.061Z,3.27
2018-08-13T20:49:29.490Z,2.10
2018-08-13T20:51:57.729Z,2.10
2018-08-13T20:54:26.817Z,2.00
2018-08-13T20:56:55.072Z,3.00
2018-08-13T20:59:23.329Z,2.50
2018-08-13T21:01:51.574Z,3.73
2018-08-13T21:04:19.810Z,2.80
2018-08-13T21:06:48.077Z,3.13
2018-08-13T21:09:16.406Z,2.00
2018-08-13T21:11:44.632Z,2.30
2018-08-13T21:14:12.917Z,3.33
2018-08-13T21:16:41.193Z,3.20
2018-08-13T21:19:09.482Z,5.40
2018-08-13T21:21:37.695Z,5.33
2018-08-13T21:24:06.170Z,5.27
2018-08-13T21:26:34.482Z,6.27
2018-08-13T21:29:02.973Z,4.53
2018-08-13T21:31:31.233Z,5.50
2018-08-13T21:33:59.457Z,5.50
2018-08-13T21:36:27.735Z,5.33
2018-08-13T21:38:56.837Z,5.03
2018-08-13T21:41:26.446Z,5.33
2018-08-13T21:43:54.698Z,4.97
2018-08-13T21:46:23.008Z,4.33
2018-08-13T21:48:51.298Z,4.60
2018-08-13T21:51:19.713Z,3.03
2018-08-13T21:53:47.949Z,3.33
2018-08-13T21:56:16.205Z,3.40
2018-08-13T21:58:44.490Z,1.87
2018-08-13T22:01:18.277Z,1.83
2018-08-13T22:03:46.518Z,1.57
2018-08-13T22:06:14.770Z,2.23
2018-08-13T22:08:43.026Z,1.80
2018-08-13T22:11:11.646Z,2.07
2018-08-13T22:13:39.930Z,3.93
2018-08-13T22:16:08.227Z,2.40
2018-08-13T22:18:36.473Z,1.90
2018-08-13T22:21:04.745Z,2.10
2018-08-13T22:23:33.125Z,1.57
2018-08-13T22:26:01.381Z,3.03
2018-08-13T22:28:29.621Z,4.37
2018-08-13T22:30:57.915Z,2.20
2018-08-13T22:33:26.140Z,2.03
2018-08-13T22:35:54.397Z,2.40
2018-08-13T22:38:22.638Z,2.60
2018-08-13T22:40:50.877Z,3.37
2018-08-13T22:43:19.141Z,2.20
2018-08-13T22:45:47.380Z,4.53
2018-08-13T22:48:15.625Z,2.77
2018-08-13T22:50:43.841Z,2.40
2018-08-13T22:53:12.065Z,2.67
2018-08-13T22:55:40.313Z,3.50
2018-08-13T22:58:08.741Z,1.93
2018-08-13T23:00:36.951Z,2.17
2018-08-13T23:03:05.254Z,2.97
2018-08-13T23:05:33.513Z,2.00
2018-08-13T23:08:01.780Z,3.23
2018-08-13T23:10:30.021Z,7.83
2018-08-13T23:12:58.282Z,3.10
2018-08-13T23:15:26.578Z,3.93
2018-08-13T23:17:55.014Z,2.40
2018-08-13T23:20:25.091Z,2.50
2018-08-13T23:22:58.281Z,3.47
2018-08-13T23:25:27.101Z,2.30
2018-08-13T23:27:56.545Z,2.90
2018-08-13T23:30:24.833Z,2.40
2018-08-13T23:32:54.206Z,2.57
2018-08-13T23:35:23.205Z,2.23
2018-08-13T23:37:51.757Z,2.73
2018-08-13T23:40:19.973Z,3.83
2018-08-13T23:42:48.373Z,4.77
2018-08-13T23:45:20.822Z,2.20
2018-08-13T23:47:49.137Z,2.03
2018-08-13T23:50:20.717Z,2.33
2018-08-13T23:52:49.918Z,1.80
2018-08-13T23:55:32.141Z,5.17
2018-08-13T23:58:00.754Z,2.73
